Helena, Illinois
Current Conditions -  °F | °C
As of 5:53 PM on Saturday 25 Oct 2014 (Local Time) from KLWV Reporting Station
Haze Haze  
Wind Chill: 73°   Ceiling: Unl
Heat Index: 73°   Visibility: 0.5mi
Dew Point: 52°   Wind: 6mph
Humidity: 48%   Direction: 270°W
Pressure: 29.98"   Gusts: NA
Location:  38.793°N, 87.8326°W
Report Text: KLWV 252253Z AUTO 27005KT 1/2SM HZ CLR 23/11 A2998 RMK AO2 SLP149 T02280111
Loading
Personal Weather Stations






























Interactive Weather Map New forecast layout! Learn more

10-Day Weather Forecast

Advertisements
Track Severe Weather on mobile